sensor_id;sensor_type;location;lat;lon;timestamp;temperature;humidity
25468;DHT22;13384;24.794;110.498;2023-02-25T00:02:23;8.30;99.90
25468;DHT22;13384;24.794;110.498;2023-02-25T00:04:54;8.30;99.90
25468;DHT22;13384;24.794;110.498;2023-02-25T00:07:25;8.20;99.90
25468;DHT22;13384;24.794;110.498;2023-02-25T00:09:58;8.20;99.90
25468;DHT22;13384;24.794;110.498;2023-02-25T00:12:28;8.20;99.90
25468;DHT22;13384;24.794;110.498;2023-02-25T00:15:00;8.30;99.90
25468;DHT22;13384;24.794;110.498;2023-02-25T00:17:31;8.40;99.90
25468;DHT22;13384;24.794;110.498;2023-02-25T00:20:03;8.50;99.90
25468;DHT22;13384;24.794;110.498;2023-02-25T00:22:34;8.50;99.90
25468;DHT22;13384;24.794;110.498;2023-02-25T00:25:06;8.60;99.90
25468;DHT22;13384;24.794;110.498;2023-02-25T00:27:38;8.70;99.90
25468;DHT22;13384;24.794;110.498;2023-02-25T00:30:10;8.80;99.90
25468;DHT22;13384;24.794;110.498;2023-02-25T00:32:41;8.90;99.90
25468;DHT22;13384;24.794;110.498;2023-02-25T00:35:12;8.90;99.90
25468;DHT22;13384;24.794;110.498;2023-02-25T00:37:43;9.10;99.90
25468;DHT22;13384;24.794;110.498;2023-02-25T00:40:15;9.10;99.90
25468;DHT22;13384;24.794;110.498;2023-02-25T00:42:46;9.30;99.90
25468;DHT22;13384;24.794;110.498;2023-02-25T00:45:18;9.30;99.90
25468;DHT22;13384;24.794;110.498;2023-02-25T00:47:52;9.40;99.90
25468;DHT22;13384;24.794;110.498;2023-02-25T00:50:23;9.50;99.90
25468;DHT22;13384;24.794;110.498;2023-02-25T00:52:54;9.60;99.90
25468;DHT22;13384;24.794;110.498;2023-02-25T00:55:25;9.80;99.90
25468;DHT22;13384;24.794;110.498;2023-02-25T00:58:02;9.80;99.90
25468;DHT22;13384;24.794;110.498;2023-02-25T01:00:34;10.00;99.90
25468;DHT22;13384;24.794;110.498;2023-02-25T01:03:19;10.10;99.90
25468;DHT22;13384;24.794;110.498;2023-02-25T01:05:51;10.20;99.90
25468;DHT22;13384;24.794;110.498;2023-02-25T01:08:24;10.10;99.90
25468;DHT22;13384;24.794;110.498;2023-02-25T01:10:55;10.30;99.90
25468;DHT22;13384;24.794;110.498;2023-02-25T01:13:26;10.20;99.90
25468;DHT22;13384;24.794;110.498;2023-02-25T01:15:57;10.30;99.90
25468;DHT22;13384;24.794;110.498;2023-02-25T01:18:29;10.50;99.90
25468;DHT22;13384;24.794;110.498;2023-02-25T01:21:00;10.60;99.90
25468;DHT22;13384;24.794;110.498;2023-02-25T01:23:37;10.70;99.90
25468;DHT22;13384;24.794;110.498;2023-02-25T01:26:08;10.70;99.90
25468;DHT22;13384;24.794;110.498;2023-02-25T01:28:40;10.80;99.90
25468;DHT22;13384;24.794;110.498;2023-02-25T01:31:20;10.70;98.60
25468;DHT22;13384;24.794;110.498;2023-02-25T01:34:00;10.70;98.80
25468;DHT22;13384;24.794;110.498;2023-02-25T01:36:33;10.70;98.30
25468;DHT22;13384;24.794;110.498;2023-02-25T01:39:05;10.80;98.60
25468;DHT22;13384;24.794;110.498;2023-02-25T01:41:37;10.80;98.70
25468;DHT22;13384;24.794;110.498;2023-02-25T01:44:13;10.90;98.80
25468;DHT22;13384;24.794;110.498;2023-02-25T01:46:47;11.00;98.40
25468;DHT22;13384;24.794;110.498;2023-02-25T01:52:17;11.30;98.10
25468;DHT22;13384;24.794;110.498;2023-02-25T01:54:54;11.40;97.80
25468;DHT22;13384;24.794;110.498;2023-02-25T01:57:32;11.50;97.50
25468;DHT22;13384;24.794;110.498;2023-02-25T02:00:09;11.60;96.70
25468;DHT22;13384;24.794;110.498;2023-02-25T02:02:48;11.60;96.00
25468;DHT22;13384;24.794;110.498;2023-02-25T02:05:21;11.50;95.80
25468;DHT22;13384;24.794;110.498;2023-02-25T02:07:54;11.60;95.70
25468;DHT22;13384;24.794;110.498;2023-02-25T02:10:27;11.80;96.10
25468;DHT22;13384;24.794;110.498;2023-02-25T02:13:00;11.90;95.60
25468;DHT22;13384;24.794;110.498;2023-02-25T02:15:34;12.00;95.50
25468;DHT22;13384;24.794;110.498;2023-02-25T02:18:10;11.90;94.50
25468;DHT22;13384;24.794;110.498;2023-02-25T02:21:42;11.80;94.80
25468;DHT22;13384;24.794;110.498;2023-02-25T02:24:10;12.00;94.70
25468;DHT22;13384;24.794;110.498;2023-02-25T02:36:11;12.50;93.40
25468;DHT22;13384;24.794;110.498;2023-02-25T02:38:53;12.50;93.30
25468;DHT22;13384;24.794;110.498;2023-02-25T02:41:53;12.60;92.90
25468;DHT22;13384;24.794;110.498;2023-02-25T02:44:48;12.60;93.20
25468;DHT22;13384;24.794;110.498;2023-02-25T02:47:45;12.80;93.10
25468;DHT22;13384;24.794;110.498;2023-02-25T02:53:01;13.10;92.40
25468;DHT22;13384;24.794;110.498;2023-02-25T02:55:49;13.20;91.80
25468;DHT22;13384;24.794;110.498;2023-02-25T02:58:34;13.40;93.00
25468;DHT22;13384;24.794;110.498;2023-02-25T03:01:30;13.50;91.50
25468;DHT22;13384;24.794;110.498;2023-02-25T03:04:05;13.50;91.30
25468;DHT22;13384;24.794;110.498;2023-02-25T03:06:44;13.50;91.30
25468;DHT22;13384;24.794;110.498;2023-02-25T03:09:48;13.40;91.30
25468;DHT22;13384;24.794;110.498;2023-02-25T03:12:19;13.50;90.80
25468;DHT22;13384;24.794;110.498;2023-02-25T03:14:51;13.70;91.60
25468;DHT22;13384;24.794;110.498;2023-02-25T03:17:32;13.80;91.00
25468;DHT22;13384;24.794;110.498;2023-02-25T03:23:03;13.60;90.00
25468;DHT22;13384;24.794;110.498;2023-02-25T03:25:46;13.70;89.90
25468;DHT22;13384;24.794;110.498;2023-02-25T03:28:29;13.90;89.40
25468;DHT22;13384;24.794;110.498;2023-02-25T03:31:27;14.20;90.30
25468;DHT22;13384;24.794;110.498;2023-02-25T03:34:14;14.50;88.90
25468;DHT22;13384;24.794;110.498;2023-02-25T03:36:53;14.70;86.10
25468;DHT22;13384;24.794;110.498;2023-02-25T03:39:33;14.60;85.60
25468;DHT22;13384;24.794;110.498;2023-02-25T03:42:12;14.50;86.20
25468;DHT22;13384;24.794;110.498;2023-02-25T03:44:49;14.40;86.10
25468;DHT22;13384;24.794;110.498;2023-02-25T03:47:22;14.80;86.20
25468;DHT22;13384;24.794;110.498;2023-02-25T03:50:07;15.10;88.80
25468;DHT22;13384;24.794;110.498;2023-02-25T03:52:42;15.50;86.20
25468;DHT22;13384;24.794;110.498;2023-02-25T03:55:27;15.80;86.20
25468;DHT22;13384;24.794;110.498;2023-02-25T03:57:58;16.00;82.40
25468;DHT22;13384;24.794;110.498;2023-02-25T04:00:31;16.00;80.20
25468;DHT22;13384;24.794;110.498;2023-02-25T04:03:06;16.10;82.00
25468;DHT22;13384;24.794;110.498;2023-02-25T04:05:37;16.40;80.00
25468;DHT22;13384;24.794;110.498;2023-02-25T04:08:10;16.40;81.00
25468;DHT22;13384;24.794;110.498;2023-02-25T04:10:46;16.50;81.00
25468;DHT22;13384;24.794;110.498;2023-02-25T04:13:18;16.70;79.80
25468;DHT22;13384;24.794;110.498;2023-02-25T04:15:50;16.70;77.80
25468;DHT22;13384;24.794;110.498;2023-02-25T04:18:22;16.60;77.90
25468;DHT22;13384;24.794;110.498;2023-02-25T04:21:00;16.60;78.10
25468;DHT22;13384;24.794;110.498;2023-02-25T04:23:32;16.40;76.60
25468;DHT22;13384;24.794;110.498;2023-02-25T04:26:03;16.20;77.80
25468;DHT22;13384;24.794;110.498;2023-02-25T04:28:35;16.20;77.20
25468;DHT22;13384;24.794;110.498;2023-02-25T04:31:07;16.10;78.20
25468;DHT22;13384;24.794;110.498;2023-02-25T04:33:38;16.10;78.60
25468;DHT22;13384;24.794;110.498;2023-02-25T04:36:31;16.20;78.50
25468;DHT22;13384;24.794;110.498;2023-02-25T04:39:04;16.20;77.50
25468;DHT22;13384;24.794;110.498;2023-02-25T04:41:43;16.40;77.60
25468;DHT22;13384;24.794;110.498;2023-02-25T04:44:15;16.70;76.00
25468;DHT22;13384;24.794;110.498;2023-02-25T04:46:47;16.80;75.30
25468;DHT22;13384;24.794;110.498;2023-02-25T04:49:21;16.90;75.30
25468;DHT22;13384;24.794;110.498;2023-02-25T04:51:53;16.90;76.30
25468;DHT22;13384;24.794;110.498;2023-02-25T04:54:24;17.20;76.20
25468;DHT22;13384;24.794;110.498;2023-02-25T04:56:55;17.20;73.70
25468;DHT22;13384;24.794;110.498;2023-02-25T04:59:27;17.30;74.10
25468;DHT22;13384;24.794;110.498;2023-02-25T05:02:01;17.40;73.90
25468;DHT22;13384;24.794;110.498;2023-02-25T05:04:43;17.50;74.70
25468;DHT22;13384;24.794;110.498;2023-02-25T05:07:15;17.80;76.20
25468;DHT22;13384;24.794;110.498;2023-02-25T05:09:46;18.10;74.40
25468;DHT22;13384;24.794;110.498;2023-02-25T05:12:17;18.20;72.30
25468;DHT22;13384;24.794;110.498;2023-02-25T05:14:51;18.30;72.40
25468;DHT22;13384;24.794;110.498;2023-02-25T05:17:24;18.40;72.50
25468;DHT22;13384;24.794;110.498;2023-02-25T05:19:56;18.20;69.60
25468;DHT22;13384;24.794;110.498;2023-02-25T05:22:28;18.30;70.60
25468;DHT22;13384;24.794;110.498;2023-02-25T05:25:01;18.40;71.30
25468;DHT22;13384;24.794;110.498;2023-02-25T05:27:33;18.50;69.20
25468;DHT22;13384;24.794;110.498;2023-02-25T05:30:06;18.50;69.10
25468;DHT22;13384;24.794;110.498;2023-02-25T05:32:37;18.60;69.30
25468;DHT22;13384;24.794;110.498;2023-02-25T05:35:09;18.70;69.70
25468;DHT22;13384;24.794;110.498;2023-02-25T05:37:42;18.70;70.20
25468;DHT22;13384;24.794;110.498;2023-02-25T05:40:34;18.70;69.50
25468;DHT22;13384;24.794;110.498;2023-02-25T05:43:06;18.80;68.20
25468;DHT22;13384;24.794;110.498;2023-02-25T05:45:38;18.80;68.40
25468;DHT22;13384;24.794;110.498;2023-02-25T05:48:09;18.90;69.70
25468;DHT22;13384;24.794;110.498;2023-02-25T05:50:41;19.00;70.50
25468;DHT22;13384;24.794;110.498;2023-02-25T05:53:13;19.00;68.00
25468;DHT22;13384;24.794;110.498;2023-02-25T05:56:07;19.10;67.80
25468;DHT22;13384;24.794;110.498;2023-02-25T05:58:42;19.10;68.50
25468;DHT22;13384;24.794;110.498;2023-02-25T06:01:16;19.20;69.10
25468;DHT22;13384;24.794;110.498;2023-02-25T06:03:49;19.20;69.90
25468;DHT22;13384;24.794;110.498;2023-02-25T06:06:26;19.20;68.30
25468;DHT22;13384;24.794;110.498;2023-02-25T06:08:58;19.20;68.40
25468;DHT22;13384;24.794;110.498;2023-02-25T06:11:30;19.20;68.70
25468;DHT22;13384;24.794;110.498;2023-02-25T06:14:01;19.10;66.90
25468;DHT22;13384;24.794;110.498;2023-02-25T06:16:32;19.20;68.30
25468;DHT22;13384;24.794;110.498;2023-02-25T06:19:09;19.10;65.90
25468;DHT22;13384;24.794;110.498;2023-02-25T06:21:43;19.00;66.80
25468;DHT22;13384;24.794;110.498;2023-02-25T06:24:14;19.20;67.90
25468;DHT22;13384;24.794;110.498;2023-02-25T06:26:46;19.20;68.80
25468;DHT22;13384;24.794;110.498;2023-02-25T06:29:17;19.10;65.40
25468;DHT22;13384;24.794;110.498;2023-02-25T06:31:48;19.10;68.50
25468;DHT22;13384;24.794;110.498;2023-02-25T06:34:20;19.10;65.90
25468;DHT22;13384;24.794;110.498;2023-02-25T06:36:52;19.10;64.80
25468;DHT22;13384;24.794;110.498;2023-02-25T06:39:25;19.30;65.60
25468;DHT22;13384;24.794;110.498;2023-02-25T06:41:57;19.40;65.30
25468;DHT22;13384;24.794;110.498;2023-02-25T06:44:41;19.40;63.60
25468;DHT22;13384;24.794;110.498;2023-02-25T06:47:16;19.50;66.00
25468;DHT22;13384;24.794;110.498;2023-02-25T06:49:48;19.50;64.20
25468;DHT22;13384;24.794;110.498;2023-02-25T06:52:20;19.50;67.00
25468;DHT22;13384;24.794;110.498;2023-02-25T06:54:53;19.60;65.40
25468;DHT22;13384;24.794;110.498;2023-02-25T06:57:26;19.50;69.00
25468;DHT22;13384;24.794;110.498;2023-02-25T06:59:57;19.60;64.60
25468;DHT22;13384;24.794;110.498;2023-02-25T07:02:29;19.70;65.90
25468;DHT22;13384;24.794;110.498;2023-02-25T07:05:04;19.60;65.60
25468;DHT22;13384;24.794;110.498;2023-02-25T07:07:36;19.70;66.40
25468;DHT22;13384;24.794;110.498;2023-02-25T07:10:11;19.70;64.80
25468;DHT22;13384;24.794;110.498;2023-02-25T07:12:42;19.70;67.20
25468;DHT22;13384;24.794;110.498;2023-02-25T07:15:13;19.70;65.00
25468;DHT22;13384;24.794;110.498;2023-02-25T07:17:44;19.80;69.10
25468;DHT22;13384;24.794;110.498;2023-02-25T07:20:15;19.80;64.30
25468;DHT22;13384;24.794;110.498;2023-02-25T07:22:46;19.80;66.50
25468;DHT22;13384;24.794;110.498;2023-02-25T07:25:18;19.90;68.30
25468;DHT22;13384;24.794;110.498;2023-02-25T07:27:50;19.90;65.80
25468;DHT22;13384;24.794;110.498;2023-02-25T07:30:23;20.00;66.80
25468;DHT22;13384;24.794;110.498;2023-02-25T07:32:56;19.80;63.80
25468;DHT22;13384;24.794;110.498;2023-02-25T07:35:27;19.80;63.80
25468;DHT22;13384;24.794;110.498;2023-02-25T07:37:59;19.60;63.70
25468;DHT22;13384;24.794;110.498;2023-02-25T07:40:30;19.60;63.10
25468;DHT22;13384;24.794;110.498;2023-02-25T07:43:03;19.50;63.10
25468;DHT22;13384;24.794;110.498;2023-02-25T07:45:48;19.50;63.60
25468;DHT22;13384;24.794;110.498;2023-02-25T07:48:21;19.50;65.00
25468;DHT22;13384;24.794;110.498;2023-02-25T07:50:52;19.50;63.20
25468;DHT22;13384;24.794;110.498;2023-02-25T07:53:24;19.60;63.30
25468;DHT22;13384;24.794;110.498;2023-02-25T07:55:55;19.20;63.70
25468;DHT22;13384;24.794;110.498;2023-02-25T07:58:26;19.10;64.80
25468;DHT22;13384;24.794;110.498;2023-02-25T08:00:58;19.20;64.30
25468;DHT22;13384;24.794;110.498;2023-02-25T08:03:31;19.40;65.10
25468;DHT22;13384;24.794;110.498;2023-02-25T08:06:02;19.50;64.80
25468;DHT22;13384;24.794;110.498;2023-02-25T08:08:38;19.40;64.90
25468;DHT22;13384;24.794;110.498;2023-02-25T08:11:12;19.20;66.30
25468;DHT22;13384;24.794;110.498;2023-02-25T08:13:44;18.60;67.30
25468;DHT22;13384;24.794;110.498;2023-02-25T08:16:19;18.30;68.80
25468;DHT22;13384;24.794;110.498;2023-02-25T08:18:51;18.50;68.40
25468;DHT22;13384;24.794;110.498;2023-02-25T08:21:24;18.50;70.00
25468;DHT22;13384;24.794;110.498;2023-02-25T08:23:55;18.60;68.10
25468;DHT22;13384;24.794;110.498;2023-02-25T08:26:26;18.40;68.80
25468;DHT22;13384;24.794;110.498;2023-02-25T08:28:58;18.60;69.80
25468;DHT22;13384;24.794;110.498;2023-02-25T08:31:29;18.40;69.70
25468;DHT22;13384;24.794;110.498;2023-02-25T08:34:01;18.70;68.90
25468;DHT22;13384;24.794;110.498;2023-02-25T08:36:32;18.60;68.60
25468;DHT22;13384;24.794;110.498;2023-02-25T08:39:09;18.50;69.30
25468;DHT22;13384;24.794;110.498;2023-02-25T08:41:41;18.60;68.30
25468;DHT22;13384;24.794;110.498;2023-02-25T08:44:13;18.70;68.90
25468;DHT22;13384;24.794;110.498;2023-02-25T08:46:45;18.80;68.00
25468;DHT22;13384;24.794;110.498;2023-02-25T08:49:20;18.90;68.50
25468;DHT22;13384;24.794;110.498;2023-02-25T08:51:51;18.90;69.10
25468;DHT22;13384;24.794;110.498;2023-02-25T08:54:22;18.90;68.10
25468;DHT22;13384;24.794;110.498;2023-02-25T08:56:54;18.90;70.50
25468;DHT22;13384;24.794;110.498;2023-02-25T08:59:26;19.20;67.80
25468;DHT22;13384;24.794;110.498;2023-02-25T09:02:17;19.00;68.50
25468;DHT22;13384;24.794;110.498;2023-02-25T09:04:49;19.10;69.40
25468;DHT22;13384;24.794;110.498;2023-02-25T09:07:20;18.90;67.70
25468;DHT22;13384;24.794;110.498;2023-02-25T09:09:51;18.70;66.60
25468;DHT22;13384;24.794;110.498;2023-02-25T09:12:23;18.60;67.20
25468;DHT22;13384;24.794;110.498;2023-02-25T09:14:55;18.60;68.10
25468;DHT22;13384;24.794;110.498;2023-02-25T09:17:27;18.40;68.40
25468;DHT22;13384;24.794;110.498;2023-02-25T09:19:58;18.50;67.70
25468;DHT22;13384;24.794;110.498;2023-02-25T09:22:35;18.40;67.90
25468;DHT22;13384;24.794;110.498;2023-02-25T09:25:27;18.30;70.70
25468;DHT22;13384;24.794;110.498;2023-02-25T09:28:00;18.40;68.30
25468;DHT22;13384;24.794;110.498;2023-02-25T09:30:31;18.30;71.50
25468;DHT22;13384;24.794;110.498;2023-02-25T09:33:02;18.30;70.00
25468;DHT22;13384;24.794;110.498;2023-02-25T09:35:44;18.20;70.30
25468;DHT22;13384;24.794;110.498;2023-02-25T09:38:41;18.10;72.10
25468;DHT22;13384;24.794;110.498;2023-02-25T09:47:14;17.90;69.50
25468;DHT22;13384;24.794;110.498;2023-02-25T09:50:42;17.60;69.30
25468;DHT22;13384;24.794;110.498;2023-02-25T09:53:12;17.40;69.10
25468;DHT22;13384;24.794;110.498;2023-02-25T09:55:50;17.40;69.60
25468;DHT22;13384;24.794;110.498;2023-02-25T09:58:40;17.40;70.90
25468;DHT22;13384;24.794;110.498;2023-02-25T10:01:37;17.30;74.30
25468;DHT22;13384;24.794;110.498;2023-02-25T10:04:31;17.20;71.60
25468;DHT22;13384;24.794;110.498;2023-02-25T10:07:26;17.00;70.70
25468;DHT22;13384;24.794;110.498;2023-02-25T10:10:12;17.00;71.20
25468;DHT22;13384;24.794;110.498;2023-02-25T10:12:51;16.90;71.30
25468;DHT22;13384;24.794;110.498;2023-02-25T10:21:10;16.50;74.20
25468;DHT22;13384;24.794;110.498;2023-02-25T10:24:33;16.20;73.30
25468;DHT22;13384;24.794;110.498;2023-02-25T10:29:55;16.00;75.90
25468;DHT22;13384;24.794;110.498;2023-02-25T10:32:34;16.00;74.80
25468;DHT22;13384;24.794;110.498;2023-02-25T10:35:38;15.90;76.60
25468;DHT22;13384;24.794;110.498;2023-02-25T10:38:11;15.80;76.50
25468;DHT22;13384;24.794;110.498;2023-02-25T10:40:42;15.70;75.40
25468;DHT22;13384;24.794;110.498;2023-02-25T10:43:22;15.60;76.90
25468;DHT22;13384;24.794;110.498;2023-02-25T10:46:04;15.50;74.70
25468;DHT22;13384;24.794;110.498;2023-02-25T10:48:41;15.40;74.40
25468;DHT22;13384;24.794;110.498;2023-02-25T10:51:15;15.40;77.00
25468;DHT22;13384;24.794;110.498;2023-02-25T10:56:27;15.20;79.60
25468;DHT22;13384;24.794;110.498;2023-02-25T10:59:04;15.20;80.40
25468;DHT22;13384;24.794;110.498;2023-02-25T11:01:48;15.10;78.50
25468;DHT22;13384;24.794;110.498;2023-02-25T11:04:45;15.10;81.10
25468;DHT22;13384;24.794;110.498;2023-02-25T11:10:19;15.00;81.80
25468;DHT22;13384;24.794;110.498;2023-02-25T11:12:56;14.90;77.20
25468;DHT22;13384;24.794;110.498;2023-02-25T11:15:35;14.80;79.40
25468;DHT22;13384;24.794;110.498;2023-02-25T11:18:18;14.80;80.20
25468;DHT22;13384;24.794;110.498;2023-02-25T11:21:08;14.80;78.80
25468;DHT22;13384;24.794;110.498;2023-02-25T11:26:35;14.70;82.70
25468;DHT22;13384;24.794;110.498;2023-02-25T11:31:52;14.50;84.30
25468;DHT22;13384;24.794;110.498;2023-02-25T11:34:28;14.50;80.90
25468;DHT22;13384;24.794;110.498;2023-02-25T11:37:40;14.40;82.30
25468;DHT22;13384;24.794;110.498;2023-02-25T11:40:29;14.40;83.10
25468;DHT22;13384;24.794;110.498;2023-02-25T11:45:45;14.30;83.20
25468;DHT22;13384;24.794;110.498;2023-02-25T11:48:24;14.20;81.90
25468;DHT22;13384;24.794;110.498;2023-02-25T11:57:24;14.10;82.50
25468;DHT22;13384;24.794;110.498;2023-02-25T12:03:04;14.00;79.50
25468;DHT22;13384;24.794;110.498;2023-02-25T12:06:20;13.80;76.90
25468;DHT22;13384;24.794;110.498;2023-02-25T12:31:23;13.30;83.70
25468;DHT22;13384;24.794;110.498;2023-02-25T12:40:30;13.00;88.30
25468;DHT22;13384;24.794;110.498;2023-02-25T12:43:22;13.10;86.90
25468;DHT22;13384;24.794;110.498;2023-02-25T12:46:17;13.00;85.50
25468;DHT22;13384;24.794;110.498;2023-02-25T12:49:11;12.90;85.80
25468;DHT22;13384;24.794;110.498;2023-02-25T13:06:37;12.90;85.00
25468;DHT22;13384;24.794;110.498;2023-02-25T13:15:21;12.90;85.70
25468;DHT22;13384;24.794;110.498;2023-02-25T13:30:04;12.60;87.10
25468;DHT22;13384;24.794;110.498;2023-02-25T13:33:07;12.60;88.60
25468;DHT22;13384;24.794;110.498;2023-02-25T13:53:40;12.30;90.30
25468;DHT22;13384;24.794;110.498;2023-02-25T13:59:52;12.50;90.80
25468;DHT22;13384;24.794;110.498;2023-02-25T14:11:21;12.30;90.20
25468;DHT22;13384;24.794;110.498;2023-02-25T14:14:34;12.00;91.10
25468;DHT22;13384;24.794;110.498;2023-02-25T14:26:54;11.90;92.10
25468;DHT22;13384;24.794;110.498;2023-02-25T14:32:37;11.80;92.20
25468;DHT22;13384;24.794;110.498;2023-02-25T14:38:12;11.70;93.80
25468;DHT22;13384;24.794;110.498;2023-02-25T14:43:43;11.80;92.80
25468;DHT22;13384;24.794;110.498;2023-02-25T14:46:59;11.80;91.70
25468;DHT22;13384;24.794;110.498;2023-02-25T14:49:34;11.60;93.10
25468;DHT22;13384;24.794;110.498;2023-02-25T15:12:11;11.00;93.80
25468;DHT22;13384;24.794;110.498;2023-02-25T15:20:45;11.10;94.20
25468;DHT22;13384;24.794;110.498;2023-02-25T15:23:20;11.00;93.80
25468;DHT22;13384;24.794;110.498;2023-02-25T15:26:38;10.90;94.10
25468;DHT22;13384;24.794;110.498;2023-02-25T15:28:54;10.90;94.10
25468;DHT22;13384;24.794;110.498;2023-02-25T15:31:31;10.90;93.90
25468;DHT22;13384;24.794;110.498;2023-02-25T15:34:33;10.90;94.00
25468;DHT22;13384;24.794;110.498;2023-02-25T15:37:27;11.00;93.80
25468;DHT22;13384;24.794;110.498;2023-02-25T15:42:57;10.80;94.30
25468;DHT22;13384;24.794;110.498;2023-02-25T15:45:31;10.90;94.10
25468;DHT22;13384;24.794;110.498;2023-02-25T15:58:36;10.50;94.90
25468;DHT22;13384;24.794;110.498;2023-02-25T16:01:37;10.40;94.60
25468;DHT22;13384;24.794;110.498;2023-02-25T16:04:46;10.20;95.40
25468;DHT22;13384;24.794;110.498;2023-02-25T16:07:22;10.30;95.10
25468;DHT22;13384;24.794;110.498;2023-02-25T16:09:59;10.20;95.70
25468;DHT22;13384;24.794;110.498;2023-02-25T16:12:32;10.20;95.40
25468;DHT22;13384;24.794;110.498;2023-02-25T16:15:04;10.20;95.40
25468;DHT22;13384;24.794;110.498;2023-02-25T16:17:37;10.20;95.50
25468;DHT22;13384;24.794;110.498;2023-02-25T16:20:43;10.20;95.70
25468;DHT22;13384;24.794;110.498;2023-02-25T16:23:18;10.00;96.00
25468;DHT22;13384;24.794;110.498;2023-02-25T16:26:22;10.10;96.10
25468;DHT22;13384;24.794;110.498;2023-02-25T16:29:23;10.10;96.30
25468;DHT22;13384;24.794;110.498;2023-02-25T16:35:22;10.00;95.90
25468;DHT22;13384;24.794;110.498;2023-02-25T16:41:05;9.70;96.50
25468;DHT22;13384;24.794;110.498;2023-02-25T16:43:56;9.90;96.60
25468;DHT22;13384;24.794;110.498;2023-02-25T16:46:32;9.90;96.40
25468;DHT22;13384;24.794;110.498;2023-02-25T16:49:10;10.00;96.40
25468;DHT22;13384;24.794;110.498;2023-02-25T16:51:48;9.80;96.40
25468;DHT22;13384;24.794;110.498;2023-02-25T16:54:28;9.80;96.60
25468;DHT22;13384;24.794;110.498;2023-02-25T16:57:06;9.80;96.60
25468;DHT22;13384;24.794;110.498;2023-02-25T16:59:39;9.80;96.50
25468;DHT22;13384;24.794;110.498;2023-02-25T17:04:53;9.80;96.70
25468;DHT22;13384;24.794;110.498;2023-02-25T17:07:27;9.80;96.70
25468;DHT22;13384;24.794;110.498;2023-02-25T17:10:02;9.80;96.50
25468;DHT22;13384;24.794;110.498;2023-02-25T17:12:40;9.80;96.50
25468;DHT22;13384;24.794;110.498;2023-02-25T17:21:48;9.80;96.60
25468;DHT22;13384;24.794;110.498;2023-02-25T17:24:10;9.80;96.90
25468;DHT22;13384;24.794;110.498;2023-02-25T17:26:47;9.70;96.70
25468;DHT22;13384;24.794;110.498;2023-02-25T17:29:20;9.70;96.90
25468;DHT22;13384;24.794;110.498;2023-02-25T17:31:53;9.70;96.70
25468;DHT22;13384;24.794;110.498;2023-02-25T17:34:33;9.70;96.90
25468;DHT22;13384;24.794;110.498;2023-02-25T17:37:06;9.50;97.00
25468;DHT22;13384;24.794;110.498;2023-02-25T17:39:40;9.40;97.10
25468;DHT22;13384;24.794;110.498;2023-02-25T17:44:57;9.30;97.70
25468;DHT22;13384;24.794;110.498;2023-02-25T17:47:33;9.50;97.80
25468;DHT22;13384;24.794;110.498;2023-02-25T17:50:34;9.40;97.30
25468;DHT22;13384;24.794;110.498;2023-02-25T17:53:05;9.40;97.50
25468;DHT22;13384;24.794;110.498;2023-02-25T17:55:37;9.50;97.40
25468;DHT22;13384;24.794;110.498;2023-02-25T17:58:22;9.60;97.50
25468;DHT22;13384;24.794;110.498;2023-02-25T18:01:00;9.60;97.40
25468;DHT22;13384;24.794;110.498;2023-02-25T18:03:46;9.60;97.30
25468;DHT22;13384;24.794;110.498;2023-02-25T18:06:38;9.50;97.60
25468;DHT22;13384;24.794;110.498;2023-02-25T18:09:28;9.40;97.80
25468;DHT22;13384;24.794;110.498;2023-02-25T18:12:01;9.50;97.60
25468;DHT22;13384;24.794;110.498;2023-02-25T18:14:38;9.60;97.50
25468;DHT22;13384;24.794;110.498;2023-02-25T18:17:15;9.60;97.70
25468;DHT22;13384;24.794;110.498;2023-02-25T18:19:48;9.20;98.00
25468;DHT22;13384;24.794;110.498;2023-02-25T18:22:45;9.20;98.00
25468;DHT22;13384;24.794;110.498;2023-02-25T18:25:33;9.30;98.10
25468;DHT22;13384;24.794;110.498;2023-02-25T18:28:05;9.20;98.40
25468;DHT22;13384;24.794;110.498;2023-02-25T18:30:36;9.20;98.50
25468;DHT22;13384;24.794;110.498;2023-02-25T18:33:07;9.20;98.30
25468;DHT22;13384;24.794;110.498;2023-02-25T18:35:42;9.20;98.30
25468;DHT22;13384;24.794;110.498;2023-02-25T18:38:22;9.20;98.30
25468;DHT22;13384;24.794;110.498;2023-02-25T18:40:53;9.20;98.40
25468;DHT22;13384;24.794;110.498;2023-02-25T18:43:27;9.20;98.30
25468;DHT22;13384;24.794;110.498;2023-02-25T18:46:00;9.10;98.20
25468;DHT22;13384;24.794;110.498;2023-02-25T18:48:31;9.20;98.20
25468;DHT22;13384;24.794;110.498;2023-02-25T18:51:02;9.20;98.20
25468;DHT22;13384;24.794;110.498;2023-02-25T18:53:35;9.00;98.30
25468;DHT22;13384;24.794;110.498;2023-02-25T18:56:06;9.00;98.60
25468;DHT22;13384;24.794;110.498;2023-02-25T18:58:37;9.00;98.80
25468;DHT22;13384;24.794;110.498;2023-02-25T19:01:19;9.10;98.60
25468;DHT22;13384;24.794;110.498;2023-02-25T19:03:53;9.10;98.50
25468;DHT22;13384;24.794;110.498;2023-02-25T19:06:29;9.10;98.70
25468;DHT22;13384;24.794;110.498;2023-02-25T19:09:02;9.10;98.30
25468;DHT22;13384;24.794;110.498;2023-02-25T19:11:35;9.20;98.10
25468;DHT22;13384;24.794;110.498;2023-02-25T19:14:06;9.30;98.30
25468;DHT22;13384;24.794;110.498;2023-02-25T19:16:37;9.20;98.20
25468;DHT22;13384;24.794;110.498;2023-02-25T19:19:08;9.00;98.30
25468;DHT22;13384;24.794;110.498;2023-02-25T19:21:39;9.00;98.50
25468;DHT22;13384;24.794;110.498;2023-02-25T19:24:11;8.80;98.60
25468;DHT22;13384;24.794;110.498;2023-02-25T19:26:42;8.70;98.70
25468;DHT22;13384;24.794;110.498;2023-02-25T19:29:14;8.90;99.00
25468;DHT22;13384;24.794;110.498;2023-02-25T19:31:45;8.80;98.90
25468;DHT22;13384;24.794;110.498;2023-02-25T19:34:16;8.90;99.10
25468;DHT22;13384;24.794;110.498;2023-02-25T19:36:46;8.90;99.10
25468;DHT22;13384;24.794;110.498;2023-02-25T19:39:20;8.90;99.00
25468;DHT22;13384;24.794;110.498;2023-02-25T19:41:51;8.90;98.70
25468;DHT22;13384;24.794;110.498;2023-02-25T19:44:22;8.70;98.90
25468;DHT22;13384;24.794;110.498;2023-02-25T19:46:53;8.70;98.90
25468;DHT22;13384;24.794;110.498;2023-02-25T19:49:24;8.80;99.00
25468;DHT22;13384;24.794;110.498;2023-02-25T19:51:55;8.70;99.00